createdAt,value
2022-09-18T00:04:27.792Z,25.32
2022-09-18T00:09:31.915Z,25.30
2022-09-18T00:14:34.605Z,25.29
2022-09-18T00:19:37.302Z,25.24
2022-09-18T00:24:41.310Z,25.17
2022-09-18T00:29:44.588Z,25.06
2022-09-18T00:34:47.378Z,25.00
2022-09-18T00:39:51.540Z,24.94
2022-09-18T00:44:54.258Z,24.90
2022-09-18T00:50:08.525Z,24.83
2022-09-18T00:55:13.619Z,24.76
2022-09-18T01:00:16.441Z,24.71
2022-09-18T01:05:27.139Z,24.65
2022-09-18T01:10:44.145Z,24.60
2022-09-18T01:15:53.937Z,24.52
2022-09-18T01:21:09.747Z,24.43
2022-09-18T01:26:28.592Z,24.39
2022-09-18T01:31:39.983Z,24.33
2022-09-18T01:36:49.632Z,24.27
2022-09-18T01:41:54.909Z,24.21
2022-09-18T01:47:01.524Z,24.17
2022-09-18T01:52:12.666Z,24.12
2022-09-18T01:57:23.764Z,24.08
2022-09-18T02:02:33.476Z,24.02
2022-09-18T02:07:46.952Z,23.97
2022-09-18T02:12:51.360Z,23.93
2022-09-18T02:18:00.236Z,23.88
2022-09-18T02:23:11.365Z,23.83
2022-09-18T02:28:18.201Z,23.77
2022-09-18T02:33:28.281Z,23.74
2022-09-18T02:38:37.360Z,23.68
2022-09-18T02:43:48.685Z,23.64
2022-09-18T02:49:04.690Z,23.59
2022-09-18T02:54:13.801Z,23.55
2022-09-18T02:59:22.627Z,23.51
2022-09-18T03:04:31.789Z,23.46
2022-09-18T03:09:42.134Z,23.43
2022-09-18T03:14:44.869Z,23.39
2022-09-18T03:19:49.078Z,23.36
2022-09-18T03:24:51.773Z,23.33
2022-09-18T03:29:54.437Z,23.31
2022-09-18T03:35:01.297Z,23.27
2022-09-18T03:40:05.436Z,23.25
2022-09-18T03:45:08.725Z,23.22
2022-09-18T03:50:12.871Z,23.19
2022-09-18T03:55:15.880Z,23.17
2022-09-18T04:00:47.923Z,23.13
2022-09-18T04:06:02.569Z,23.09
2022-09-18T04:11:23.821Z,23.07
2022-09-18T04:16:26.642Z,23.04
2022-09-18T04:21:31.540Z,23.00
2022-09-18T04:26:34.993Z,22.99
2022-09-18T04:31:37.899Z,22.95
2022-09-18T04:36:46.578Z,22.93
2022-09-18T04:41:50.762Z,22.90
2022-09-18T04:46:55.022Z,22.90
2022-09-18T04:51:59.254Z,22.89
2022-09-18T04:57:01.869Z,22.84
2022-09-18T05:02:04.958Z,22.82
2022-09-18T05:07:09.010Z,22.80
2022-09-18T05:12:12.562Z,22.79
2022-09-18T05:17:16.789Z,22.76
2022-09-18T05:22:35.706Z,22.74
2022-09-18T05:27:39.649Z,22.73
2022-09-18T05:32:43.738Z,22.70
2022-09-18T05:37:51.336Z,22.69
2022-09-18T05:42:54.860Z,22.67
2022-09-18T05:47:59.282Z,22.67
2022-09-18T05:53:05.401Z,21.46
2022-09-18T05:58:18.846Z,20.67
2022-09-18T06:03:23.110Z,20.63
2022-09-18T06:08:27.996Z,20.90
2022-09-18T06:13:30.738Z,21.39
2022-09-18T06:18:33.476Z,21.52
2022-09-18T06:23:39.238Z,21.59
2022-09-18T06:28:51.502Z,21.65
2022-09-18T06:33:54.378Z,21.70
2022-09-18T06:38:58.700Z,21.73
2022-09-18T06:44:01.682Z,21.76
2022-09-18T06:49:07.347Z,21.78
2022-09-18T06:54:12.034Z,21.81
2022-09-18T06:59:15.185Z,21.84
2022-09-18T07:04:17.939Z,21.85
2022-09-18T07:09:22.646Z,21.88
2022-09-18T07:14:25.543Z,21.91
2022-09-18T07:19:33.115Z,21.95
2022-09-18T07:24:37.357Z,21.96
2022-09-18T07:29:41.962Z,21.97
2022-09-18T07:34:47.749Z,22.00
2022-09-18T07:39:57.935Z,21.99
2022-09-18T07:45:19.504Z,22.00
2022-09-18T07:50:23.053Z,22.01
2022-09-18T07:55:28.516Z,22.02
2022-09-18T08:00:34.869Z,22.06
2022-09-18T08:05:38.800Z,22.06
2022-09-18T08:10:44.863Z,22.09
2022-09-18T08:16:07.493Z,22.07
2022-09-18T08:21:30.757Z,22.07
2022-09-18T08:26:38.634Z,22.06
2022-09-18T08:31:42.302Z,22.08
2022-09-18T08:36:46.439Z,22.10
2022-09-18T08:42:15.859Z,22.14
2022-09-18T08:47:25.562Z,22.17
2022-09-18T08:52:34.272Z,22.19
2022-09-18T09:03:14.954Z,22.15
2022-09-18T09:08:38.093Z,22.14
2022-09-18T09:14:00.979Z,22.17
2022-09-18T09:19:18.602Z,22.15
2022-09-18T09:24:32.067Z,22.13
2022-09-18T09:35:15.083Z,22.22
2022-09-18T09:40:40.066Z,22.23
2022-09-18T09:45:49.206Z,22.29
2022-09-18T09:50:59.362Z,22.31
2022-09-18T09:56:17.885Z,22.34
2022-09-18T10:01:27.521Z,22.37
2022-09-18T10:06:42.476Z,22.36
2022-09-18T10:11:57.337Z,22.38
2022-09-18T10:17:05.166Z,22.38
2022-09-18T10:22:11.982Z,22.43
2022-09-18T10:27:16.591Z,22.45
2022-09-18T10:32:35.821Z,22.52
2022-09-18T10:37:43.696Z,22.54
2022-09-18T10:42:57.764Z,22.56
2022-09-18T10:48:13.994Z,22.60
2022-09-18T10:53:22.902Z,22.62
2022-09-18T10:58:30.606Z,22.66
2022-09-18T11:03:47.738Z,22.70
2022-09-18T11:09:02.425Z,22.72
2022-09-18T11:14:18.368Z,22.79
2022-09-18T11:20:03.651Z,22.81
2022-09-18T11:25:30.212Z,22.90
2022-09-18T11:30:57.744Z,22.97
2022-09-18T11:36:06.792Z,22.96
2022-09-18T11:41:13.068Z,23.02
2022-09-18T11:46:38.934Z,23.07
2022-09-18T11:51:49.441Z,23.16
2022-09-18T11:56:56.306Z,23.22
2022-09-18T12:02:05.909Z,23.26
2022-09-18T12:07:37.942Z,23.31
2022-09-18T12:12:48.669Z,23.35
2022-09-18T12:17:56.291Z,23.36
2022-09-18T12:23:02.485Z,23.37
2022-09-18T12:28:16.803Z,23.39
2022-09-18T12:33:42.410Z,23.34
2022-09-18T12:39:01.077Z,23.24
2022-09-18T12:44:16.161Z,23.16
2022-09-18T12:49:41.761Z,23.06
2022-09-18T12:55:05.223Z,22.97
2022-09-18T13:00:11.673Z,22.91
2022-09-18T13:05:20.136Z,22.86
2022-09-18T13:10:28.537Z,22.82
2022-09-18T13:15:37.149Z,22.79
2022-09-18T13:20:44.035Z,22.76
2022-09-18T13:25:51.615Z,22.73
2022-09-18T13:31:20.901Z,22.65
2022-09-18T13:36:26.975Z,22.60
2022-09-18T13:41:43.082Z,22.58
2022-09-18T13:46:46.465Z,22.55
2022-09-18T13:51:49.499Z,22.52
2022-09-18T13:57:21.513Z,22.49
2022-09-18T14:02:31.117Z,22.46
2022-09-18T14:07:53.678Z,22.43
2022-09-18T14:13:11.934Z,22.42
2022-09-18T14:18:22.406Z,22.41
2022-09-18T14:24:11.051Z,22.38
2022-09-18T14:29:19.683Z,22.42
2022-09-18T14:34:26.832Z,22.37
2022-09-18T14:39:31.757Z,22.34
2022-09-18T14:44:38.555Z,22.32
2022-09-18T14:49:44.318Z,22.30
2022-09-18T14:54:48.613Z,22.29
2022-09-18T14:59:56.331Z,22.28
2022-09-18T15:05:01.224Z,22.25
2022-09-18T15:10:07.496Z,22.25
2022-09-18T15:15:33.067Z,22.23
2022-09-18T15:20:35.841Z,22.22
2022-09-18T15:25:42.952Z,22.21
2022-09-18T15:30:48.251Z,22.20
2022-09-18T15:35:53.520Z,22.18
2022-09-18T15:40:56.633Z,22.15
2022-09-18T15:46:04.956Z,22.15
2022-09-18T15:51:09.628Z,22.12
2022-09-18T15:56:21.059Z,22.11
2022-09-18T16:01:29.423Z,22.10
2022-09-18T16:06:35.438Z,22.08
2022-09-18T16:11:46.469Z,22.11
2022-09-18T16:16:50.526Z,22.13
2022-09-18T16:21:53.212Z,22.07
2022-09-18T16:27:05.218Z,22.07
2022-09-18T16:32:12.338Z,22.04
2022-09-18T16:37:17.339Z,22.05
2022-09-18T16:42:20.366Z,22.06
2022-09-18T16:47:25.751Z,22.09
2022-09-18T16:52:28.448Z,22.21
2022-09-18T16:57:31.303Z,22.25
2022-09-18T17:02:36.248Z,22.29
2022-09-18T17:07:40.479Z,22.34
2022-09-18T17:12:43.273Z,22.41
2022-09-18T17:17:47.368Z,22.47
2022-09-18T17:22:51.402Z,22.53
2022-09-18T17:27:54.116Z,22.56
2022-09-18T17:32:58.690Z,22.67
2022-09-18T17:38:01.737Z,22.71
2022-09-18T17:43:05.580Z,22.74
2022-09-18T17:48:09.812Z,22.75
2022-09-18T17:53:12.419Z,22.82
2022-09-18T17:58:15.466Z,22.88
2022-09-18T18:03:19.509Z,22.95
2022-09-18T18:08:22.211Z,23.03
2022-09-18T18:13:25.083Z,23.10
2022-09-18T18:18:29.536Z,23.20
2022-09-18T18:23:33.138Z,23.23
2022-09-18T18:28:37.050Z,23.30
2022-09-18T18:33:43.439Z,23.40
2022-09-18T18:38:48.899Z,23.46
2022-09-18T18:43:55.446Z,23.53
2022-09-18T18:49:01.828Z,23.56
2022-09-18T18:54:06.687Z,23.60
2022-09-18T18:59:12.562Z,23.65
2022-09-18T19:04:19.722Z,23.71
2022-09-18T19:09:26.048Z,23.75
2022-09-18T19:14:33.263Z,23.81
2022-09-18T19:19:37.387Z,23.89
2022-09-18T19:24:40.038Z,23.95
2022-09-18T19:29:42.666Z,23.96
2022-09-18T19:34:46.779Z,24.02
2022-09-18T19:39:50.211Z,24.07
2022-09-18T19:44:56.449Z,24.09
2022-09-18T19:50:03.478Z,24.16
2022-09-18T19:55:07.103Z,24.18
2022-09-18T20:00:12.265Z,24.23
2022-09-18T20:05:17.080Z,24.27
2022-09-18T20:10:20.462Z,24.31
2022-09-18T20:15:23.242Z,24.35
2022-09-18T20:20:27.949Z,24.33
2022-09-18T20:25:30.600Z,24.34
2022-09-18T20:30:33.280Z,24.38
2022-09-18T20:35:38.041Z,24.43
2022-09-18T20:40:41.582Z,24.43
2022-09-18T20:45:44.291Z,24.46
2022-09-18T20:50:49.258Z,24.48
2022-09-18T20:55:51.899Z,24.48
2022-09-18T21:00:55.243Z,24.52
2022-09-18T21:06:21.413Z,24.54
2022-09-18T21:11:27.413Z,24.53
2022-09-18T21:16:33.152Z,24.56
2022-09-18T21:21:37.296Z,24.58
2022-09-18T21:26:41.572Z,24.60
2022-09-18T21:31:45.129Z,24.57
2022-09-18T21:36:49.141Z,24.61
2022-09-18T21:41:53.122Z,24.61
2022-09-18T21:46:57.351Z,24.64
2022-09-18T21:52:03.566Z,24.63
2022-09-18T21:57:07.155Z,24.65
2022-09-18T22:02:11.617Z,24.66
2022-09-18T22:07:16.536Z,24.64
2022-09-18T22:12:19.268Z,24.58
2022-09-18T22:17:22.317Z,24.45
2022-09-18T22:22:28.072Z,24.36
2022-09-18T22:27:30.780Z,24.29
2022-09-18T22:32:33.406Z,24.24
2022-09-18T22:37:37.530Z,24.14
2022-09-18T22:42:40.276Z,24.02
2022-09-18T22:47:43.247Z,23.94
2022-09-18T22:52:47.312Z,23.87
2022-09-18T22:57:50.654Z,23.81
2022-09-18T23:02:53.281Z,23.74
2022-09-18T23:07:57.288Z,23.67
2022-09-18T23:12:59.990Z,23.62
2022-09-18T23:18:02.634Z,23.58
2022-09-18T23:23:06.599Z,23.51
2022-09-18T23:28:09.236Z,23.46
2022-09-18T23:33:11.913Z,23.41
2022-09-18T23:38:15.913Z,23.38
2022-09-18T23:43:18.575Z,23.33
2022-09-18T23:48:21.417Z,23.28
2022-09-18T23:53:25.428Z,23.23
2022-09-18T23:58:28.063Z,23.18
